PWSweather.com
Personal Weather Stations
Station Observations
SHAHALMS1
Eftra, Falkenberg, HA

EftraFalkenberg, HA

Lat: 56.85, Lon: 12.65

Elevation: 140

Station Type:

http://hem.passagen.se/risarp101

High Low Average
Temperature 77.0°F25.0°C 51.8°F11.0°C 65.9°F18.8°C
Dew Point 49.3°F9.6°C 31.6°F-0.2°C 38.3°F3.5°C
Winds 10.7 mph 17.2 kmh Calm Calm 4.0 mph SE6.4 kmh SE
Wind Gusts 24.7 mph39.8 kmh -- 8.0 mph12.9 kmh
Humidity 70% 20% 39%
Pressure 30.18 in1022.0 mb 30.07 in1018.3 mb -
Precipitation 0.00 in0.0 mm - -
Hour Temp Dew Point Humidity Winds Wind Gusts Pressure Precip Precip Rate Daily Precip Total
12:00 AM 57.4°F14.1°C 37.8°F3.2°C 48% Calm Calm -- 30.12 in1020.0 mb 0.00 in0.0 mm 0.00 in0.0 mm 0.00 in0.0 mm
12:15 AM 56.8°F13.8°C 38.4°F3.6°C 50% 0.3 mph SE0.5 kmh SE 3.9 mph6.3 kmh 30.12 in1020.0 mb 0.00 in0.0 mm 0.00 in0.0 mm 0.00 in0.0 mm
12:30 AM 55.8°F13.2°C 37.9°F3.3°C 51% 0.2 mph ESE0.3 kmh ESE 1.4 mph2.3 kmh 30.15 in1021.0 mb 0.00 in0.0 mm 0.00 in0.0 mm 0.00 in0.0 mm
12:45 AM 54.9°F12.7°C 37.6°F3.1°C 52% Calm Calm -- 30.15 in1021.0 mb 0.00 in0.0 mm 0.00 in0.0 mm 0.00 in0.0 mm
01:00 AM 54.1°F12.3°C 37.8°F3.2°C 54% 2.1 mph SE3.4 kmh SE 6.8 mph10.9 kmh 30.15 in1021.0 mb 0.00 in0.0 mm 0.00 in0.0 mm 0.00 in0.0 mm
01:15 AM 54.0°F12.2°C 38.1°F3.4°C 55% 3.1 mph SE5.0 kmh SE 6.8 mph10.9 kmh 30.15 in1021.0 mb 0.00 in0.0 mm 0.00 in0.0 mm 0.00 in0.0 mm
01:30 AM 53.6°F12.0°C 38.3°F3.5°C 56% 3.4 mph SE5.5 kmh SE 6.8 mph10.9 kmh 30.12 in1020.0 mb 0.00 in0.0 mm 0.00 in0.0 mm 0.00 in0.0 mm
01:45 AM 53.4°F11.9°C 38.6°F3.7°C 57% 5.2 mph SE8.4 kmh SE 8.9 mph14.3 kmh 30.15 in1021.0 mb 0.00 in0.0 mm 0.00 in0.0 mm 0.00 in0.0 mm
02:00 AM 53.1°F11.7°C 38.7°F3.7°C 58% 2.5 mph SE4.0 kmh SE 8.9 mph14.3 kmh 30.15 in1021.0 mb 0.00 in0.0 mm 0.00 in0.0 mm 0.00 in0.0 mm
02:15 AM 52.5°F11.4°C 38.6°F3.7°C 59% 1.3 mph SE2.1 kmh SE 6.4 mph10.3 kmh 30.12 in1020.0 mb 0.00 in0.0 mm 0.00 in0.0 mm 0.00 in0.0 mm
02:30 AM 52.3°F11.3°C 38.9°F3.8°C 60% 2.0 mph ESE3.2 kmh ESE 6.8 mph10.9 kmh 30.15 in1021.0 mb 0.00 in0.0 mm 0.00 in0.0 mm 0.00 in0.0 mm
02:45 AM 52.2°F11.2°C 39.1°F3.9°C 61% Calm Calm -- 30.15 in1021.0 mb 0.00 in0.0 mm 0.00 in0.0 mm 0.00 in0.0 mm
03:00 AM 52.0°F11.1°C 38.9°F3.8°C 61% 1.2 mph SE1.9 kmh SE 5.4 mph8.7 kmh 30.15 in1021.0 mb 0.00 in0.0 mm 0.00 in0.0 mm 0.00 in0.0 mm
03:15 AM 52.0°F11.1°C 39.4°F4.1°C 62% Calm Calm -- 30.15 in1021.0 mb 0.00 in0.0 mm 0.00 in0.0 mm 0.00 in0.0 mm
03:30 AM 52.0°F11.1°C 39.4°F4.1°C 62% Calm Calm -- 30.15 in1021.0 mb 0.00 in0.0 mm 0.00 in0.0 mm 0.00 in0.0 mm
03:45 AM 51.8°F11.0°C 39.2°F4.0°C 62% Calm Calm -- 30.15 in1021.0 mb 0.00 in0.0 mm 0.00 in0.0 mm 0.00 in0.0 mm
04:00 AM 52.0°F11.1°C 39.8°F4.3°C 63% Calm Calm -- 30.15 in1021.0 mb 0.00 in0.0 mm 0.00 in0.0 mm 0.00 in0.0 mm
04:15 AM 52.5°F11.4°C 40.7°F4.8°C 64% Calm Calm -- 30.15 in1021.0 mb 0.00 in0.0 mm 0.00 in0.0 mm 0.00 in0.0 mm
04:30 AM 53.1°F11.7°C 41.6°F5.3°C 65% Calm Calm -- 30.15 in1021.0 mb 0.00 in0.0 mm 0.00 in0.0 mm 0.00 in0.0 mm
04:45 AM 53.6°F12.0°C 42.1°F5.6°C 65% Calm Calm -- 30.15 in1021.0 mb 0.00 in0.0 mm 0.00 in0.0 mm 0.00 in0.0 mm
05:00 AM 53.8°F12.1°C 42.3°F5.7°C 65% Calm Calm -- 30.15 in1021.0 mb 0.00 in0.0 mm 0.00 in0.0 mm 0.00 in0.0 mm
05:15 AM 54.0°F12.2°C 42.5°F5.8°C 65% Calm Calm -- 30.15 in1021.0 mb 0.00 in0.0 mm 0.00 in0.0 mm 0.00 in0.0 mm
05:30 AM 54.5°F12.5°C 43.4°F6.3°C 66% Calm Calm -- 30.15 in1021.0 mb 0.00 in0.0 mm 0.00 in0.0 mm 0.00 in0.0 mm
05:45 AM 55.2°F12.9°C 44.8°F7.1°C 68% Calm Calm -- 30.15 in1021.0 mb 0.00 in0.0 mm 0.00 in0.0 mm 0.00 in0.0 mm
06:00 AM 56.3°F13.5°C 46.3°F7.9°C 69% Calm Calm -- 30.18 in1022.0 mb 0.00 in0.0 mm 0.00 in0.0 mm 0.00 in0.0 mm
06:15 AM 57.2°F14.0°C 47.1°F8.4°C 69% Calm Calm -- 30.18 in1022.0 mb 0.00 in0.0 mm 0.00 in0.0 mm 0.00 in0.0 mm
06:31 AM 58.3°F14.6°C 48.5°F9.2°C 70% Calm Calm -- 30.18 in1022.0 mb 0.00 in0.0 mm 0.00 in0.0 mm 0.00 in0.0 mm
06:45 AM 59.9°F15.5°C 49.3°F9.6°C 68% Calm Calm -- 30.18 in1022.0 mb 0.00 in0.0 mm 0.00 in0.0 mm 0.00 in0.0 mm
07:00 AM 61.2°F16.2°C 48.0°F8.9°C 62% 2.5 mph N4.0 kmh N 8.6 mph13.8 kmh 30.18 in1022.0 mb 0.00 in0.0 mm 0.00 in0.0 mm 0.00 in0.0 mm
07:15 AM 62.6°F17.0°C 47.1°F8.4°C 57% 2.3 mph N3.7 kmh N 8.6 mph13.8 kmh 30.18 in1022.0 mb 0.00 in0.0 mm 0.00 in0.0 mm 0.00 in0.0 mm
07:30 AM 63.9°F17.7°C 46.9°F8.3°C 54% 2.4 mph N3.9 kmh N 9.3 mph15.0 kmh 30.18 in1022.0 mb 0.00 in0.0 mm 0.00 in0.0 mm 0.00 in0.0 mm
07:45 AM 64.9°F18.3°C 44.8°F7.1°C 48% 5.5 mph N8.9 kmh N 13.6 mph21.9 kmh 30.18 in1022.0 mb 0.00 in0.0 mm 0.00 in0.0 mm 0.00 in0.0 mm
08:00 AM 65.7°F18.7°C 44.3°F6.8°C 46% 3.5 mph N5.6 kmh N 12.5 mph20.1 kmh 30.18 in1022.0 mb 0.00 in0.0 mm 0.00 in0.0 mm 0.00 in0.0 mm
08:15 AM 66.2°F19.0°C 42.4°F5.8°C 42% 7.1 mph N11.4 kmh N 16.8 mph27.0 kmh 30.18 in1022.0 mb 0.00 in0.0 mm 0.00 in0.0 mm 0.00 in0.0 mm
08:30 AM 67.5°F19.7°C 44.2°F6.8°C 43% 2.3 mph NE3.7 kmh NE 10.4 mph16.7 kmh 30.18 in1022.0 mb 0.00 in0.0 mm 0.00 in0.0 mm 0.00 in0.0 mm
08:45 AM 67.8°F19.9°C 42.6°F5.9°C 40% 8.1 mph N13.0 kmh N 20.8 mph33.5 kmh 30.18 in1022.0 mb 0.00 in0.0 mm 0.00 in0.0 mm 0.00 in0.0 mm
09:00 AM 68.0°F20.0°C 41.4°F5.2°C 38% 8.0 mph N12.9 kmh N 16.5 mph26.6 kmh 30.18 in1022.0 mb 0.00 in0.0 mm 0.00 in0.0 mm 0.00 in0.0 mm
09:15 AM 68.7°F20.4°C 41.4°F5.2°C 37% 10.7 mph N17.2 kmh N 20.8 mph33.5 kmh 30.18 in1022.0 mb 0.00 in0.0 mm 0.00 in0.0 mm 0.00 in0.0 mm
09:30 AM 68.9°F20.5°C 40.8°F4.9°C 36% 8.7 mph N14.0 kmh N 19.0 mph30.6 kmh 30.18 in1022.0 mb 0.00 in0.0 mm 0.00 in0.0 mm 0.00 in0.0 mm
09:45 AM 69.4°F20.8°C 41.3°F5.2°C 36% 5.6 mph N9.0 kmh N 17.5 mph28.2 kmh 30.18 in1022.0 mb 0.00 in0.0 mm 0.00 in0.0 mm 0.00 in0.0 mm
10:00 AM 70.2°F21.2°C 40.5°F4.7°C 34% 5.4 mph N8.7 kmh N 15.7 mph25.3 kmh 30.15 in1021.0 mb 0.00 in0.0 mm 0.00 in0.0 mm 0.00 in0.0 mm
10:15 AM 70.5°F21.4°C 39.2°F4.0°C 32% 6.2 mph NNE10.0 kmh NNE 14.0 mph22.5 kmh 30.15 in1021.0 mb 0.00 in0.0 mm 0.00 in0.0 mm 0.00 in0.0 mm
10:30 AM 71.1°F21.7°C 39.7°F4.3°C 32% 5.9 mph NNE9.5 kmh NNE 20.0 mph32.2 kmh 30.15 in1021.0 mb 0.00 in0.0 mm 0.00 in0.0 mm 0.00 in0.0 mm
10:45 AM 71.6°F22.0°C 40.2°F4.6°C 32% 5.7 mph N9.2 kmh N 16.5 mph26.6 kmh 30.15 in1021.0 mb 0.00 in0.0 mm 0.00 in0.0 mm 0.00 in0.0 mm
11:00 AM 71.4°F21.9°C 40.0°F4.4°C 32% 9.4 mph N15.1 kmh N 24.7 mph39.8 kmh 30.15 in1021.0 mb 0.00 in0.0 mm 0.00 in0.0 mm 0.00 in0.0 mm
11:15 AM 72.3°F22.4°C 40.0°F4.4°C 31% 5.5 mph N8.9 kmh N 17.5 mph28.2 kmh 30.12 in1020.0 mb 0.00 in0.0 mm 0.00 in0.0 mm 0.00 in0.0 mm
11:30 AM 72.5°F22.5°C 39.3°F4.1°C 30% 10.2 mph N16.4 kmh N 21.1 mph34.0 kmh 30.15 in1021.0 mb 0.00 in0.0 mm 0.00 in0.0 mm 0.00 in0.0 mm
11:45 AM 72.9°F22.7°C 39.6°F4.2°C 30% 6.6 mph N10.6 kmh N 14.0 mph22.5 kmh 30.12 in1020.0 mb 0.00 in0.0 mm 0.00 in0.0 mm 0.00 in0.0 mm
12:00 PM 73.6°F23.1°C 39.4°F4.1°C 29% 7.6 mph N12.2 kmh N 20.0 mph32.2 kmh 30.15 in1021.0 mb 0.00 in0.0 mm 0.00 in0.0 mm 0.00 in0.0 mm
12:15 PM 73.9°F23.3°C 39.7°F4.3°C 29% 3.9 mph NNE6.3 kmh NNE 6.1 mph9.8 kmh 30.15 in1021.0 mb 0.00 in0.0 mm 0.00 in0.0 mm 0.00 in0.0 mm
12:30 PM 73.2°F22.9°C 39.9°F4.4°C 30% 4.7 mph N7.6 kmh N 5.7 mph9.2 kmh 30.15 in1021.0 mb 0.00 in0.0 mm 0.00 in0.0 mm 0.00 in0.0 mm
12:45 PM 74.3°F23.5°C 39.1°F3.9°C 28% 2.9 mph NNW4.7 kmh NNW 7.5 mph12.1 kmh 30.15 in1021.0 mb 0.00 in0.0 mm 0.00 in0.0 mm 0.00 in0.0 mm
01:00 PM 75.4°F24.1°C 40.0°F4.4°C 28% 4.8 mph NE7.7 kmh NE 16.8 mph27.0 kmh 30.12 in1020.0 mb 0.00 in0.0 mm 0.00 in0.0 mm 0.00 in0.0 mm
01:15 PM 75.2°F24.0°C 36.9°F2.7°C 25% 4.6 mph NE7.4 kmh NE 16.1 mph25.9 kmh 30.12 in1020.0 mb 0.00 in0.0 mm 0.00 in0.0 mm 0.00 in0.0 mm
01:30 PM 75.9°F24.4°C 37.6°F3.1°C 25% 3.4 mph NE5.5 kmh NE 8.9 mph14.3 kmh 30.12 in1020.0 mb 0.00 in0.0 mm 0.00 in0.0 mm 0.00 in0.0 mm
01:45 PM 75.6°F24.2°C 36.2°F2.3°C 24% 4.9 mph N7.9 kmh N 15.7 mph25.3 kmh 30.12 in1020.0 mb 0.00 in0.0 mm 0.00 in0.0 mm 0.00 in0.0 mm
02:00 PM 75.9°F24.4°C 36.5°F2.5°C 24% 3.2 mph NE5.1 kmh NE 8.9 mph14.3 kmh 30.09 in1019.0 mb 0.00 in0.0 mm 0.00 in0.0 mm 0.00 in0.0 mm
02:15 PM 76.1°F24.5°C 35.6°F2.0°C 23% 5.5 mph NE8.9 kmh NE 20.8 mph33.5 kmh 30.09 in1019.0 mb 0.00 in0.0 mm 0.00 in0.0 mm 0.00 in0.0 mm
02:32 PM 76.6°F24.8°C 36.0°F2.2°C 23% 3.5 mph N5.6 kmh N 10.4 mph16.7 kmh 30.09 in1019.0 mb 0.00 in0.0 mm 0.00 in0.0 mm 0.00 in0.0 mm
02:45 PM 76.5°F24.7°C 33.6°F0.9°C 21% 3.5 mph NE5.6 kmh NE 9.7 mph15.6 kmh 30.09 in1019.0 mb 0.00 in0.0 mm 0.00 in0.0 mm 0.00 in0.0 mm
03:00 PM 76.3°F24.6°C 34.6°F1.4°C 22% 4.4 mph NNE7.1 kmh NNE 9.3 mph15.0 kmh 30.07 in1018.3 mb 0.00 in0.0 mm 0.00 in0.0 mm 0.00 in0.0 mm
03:15 PM 77.0°F25.0°C 36.3°F2.4°C 23% 4.5 mph ENE7.2 kmh ENE 12.2 mph19.6 kmh 30.07 in1018.3 mb 0.00 in0.0 mm 0.00 in0.0 mm 0.00 in0.0 mm
03:30 PM 76.8°F24.9°C 35.1°F1.7°C 22% 4.5 mph NNE7.2 kmh NNE 9.7 mph15.6 kmh 30.07 in1018.3 mb 0.00 in0.0 mm 0.00 in0.0 mm 0.00 in0.0 mm
03:45 PM 76.3°F24.6°C 33.5°F0.8°C 21% 5.6 mph N9.0 kmh N 9.7 mph15.6 kmh 30.07 in1018.3 mb 0.00 in0.0 mm 0.00 in0.0 mm 0.00 in0.0 mm
04:00 PM 75.9°F24.4°C 31.9°F-0.1°C 20% 2.6 mph NE4.2 kmh NE 6.4 mph10.3 kmh 30.09 in1019.0 mb 0.00 in0.0 mm 0.00 in0.0 mm 0.00 in0.0 mm
04:15 PM 75.7°F24.3°C 31.8°F-0.1°C 20% 2.8 mph NE4.5 kmh NE 5.0 mph8.0 kmh 30.09 in1019.0 mb 0.00 in0.0 mm 0.00 in0.0 mm 0.00 in0.0 mm
04:30 PM 75.6°F24.2°C 31.6°F-0.2°C 20% 2.0 mph E3.2 kmh E 5.4 mph8.7 kmh 30.07 in1018.3 mb 0.00 in0.0 mm 0.00 in0.0 mm 0.00 in0.0 mm
04:45 PM 75.2°F24.0°C 32.6°F0.3°C 21% 4.4 mph W7.1 kmh W 5.4 mph8.7 kmh 30.09 in1019.0 mb 0.00 in0.0 mm 0.00 in0.0 mm 0.00 in0.0 mm
05:00 PM 75.2°F24.0°C 33.7°F0.9°C 22% 4.4 mph W7.1 kmh W 5.4 mph8.7 kmh 30.09 in1019.0 mb 0.00 in0.0 mm 0.00 in0.0 mm 0.00 in0.0 mm
05:15 PM 74.7°F23.7°C 32.1°F0.1°C 21% 4.4 mph W7.1 kmh W 5.4 mph8.7 kmh 30.09 in1019.0 mb 0.00 in0.0 mm 0.00 in0.0 mm 0.00 in0.0 mm
05:30 PM 74.7°F23.7°C 33.3°F0.7°C 22% 4.4 mph W7.1 kmh W 5.4 mph8.7 kmh 30.09 in1019.0 mb 0.00 in0.0 mm 0.00 in0.0 mm 0.00 in0.0 mm
05:45 PM 74.1°F23.4°C 33.9°F1.1°C 23% 4.4 mph W7.1 kmh W 5.4 mph8.7 kmh 30.09 in1019.0 mb 0.00 in0.0 mm 0.00 in0.0 mm 0.00 in0.0 mm
06:00 PM 73.8°F23.2°C 33.6°F0.9°C 23% 4.4 mph W7.1 kmh W 5.4 mph8.7 kmh 30.09 in1019.0 mb 0.00 in0.0 mm 0.00 in0.0 mm 0.00 in0.0 mm
06:15 PM 73.9°F23.3°C 33.8°F1.0°C 23% 4.4 mph W7.1 kmh W 5.4 mph8.7 kmh 30.09 in1019.0 mb 0.00 in0.0 mm 0.00 in0.0 mm 0.00 in0.0 mm
06:30 PM 74.1°F23.4°C 33.9°F1.1°C 23% 4.4 mph W7.1 kmh W 5.4 mph8.7 kmh 30.09 in1019.0 mb 0.00 in0.0 mm 0.00 in0.0 mm 0.00 in0.0 mm
06:45 PM 74.1°F23.4°C 35.0°F1.7°C 24% 4.4 mph W7.1 kmh W 5.4 mph8.7 kmh 30.09 in1019.0 mb 0.00 in0.0 mm 0.00 in0.0 mm 0.00 in0.0 mm
07:00 PM 73.6°F23.1°C 35.6°F2.0°C 25% 4.4 mph W7.1 kmh W 5.4 mph8.7 kmh 30.09 in1019.0 mb 0.00 in0.0 mm 0.00 in0.0 mm 0.00 in0.0 mm
07:15 PM 71.8°F22.1°C 35.0°F1.7°C 26% 4.4 mph W7.1 kmh W 5.4 mph8.7 kmh 30.09 in1019.0 mb 0.00 in0.0 mm 0.00 in0.0 mm 0.00 in0.0 mm
07:30 PM 70.7°F21.5°C 36.0°F2.2°C 28% 4.4 mph W7.1 kmh W 5.4 mph8.7 kmh 30.09 in1019.0 mb 0.00 in0.0 mm 0.00 in0.0 mm 0.00 in0.0 mm
07:45 PM 69.8°F21.0°C 36.1°F2.3°C 29% 4.4 mph W7.1 kmh W 5.4 mph8.7 kmh 30.09 in1019.0 mb 0.00 in0.0 mm 0.00 in0.0 mm 0.00 in0.0 mm
08:00 PM 68.9°F20.5°C 35.3°F1.8°C 29% 4.4 mph W7.1 kmh W 5.4 mph8.7 kmh 30.09 in1019.0 mb 0.00 in0.0 mm 0.00 in0.0 mm 0.00 in0.0 mm
08:15 PM 68.0°F20.0°C 35.4°F1.9°C 30% 4.4 mph W7.1 kmh W 5.4 mph8.7 kmh 30.09 in1019.0 mb 0.00 in0.0 mm 0.00 in0.0 mm 0.00 in0.0 mm
08:30 PM 68.2°F20.1°C 35.5°F1.9°C 30% 4.4 mph W7.1 kmh W 5.4 mph8.7 kmh 30.09 in1019.0 mb 0.00 in0.0 mm 0.00 in0.0 mm 0.00 in0.0 mm
08:45 PM 68.0°F20.0°C 35.4°F1.9°C 30% 4.4 mph W7.1 kmh W 5.4 mph8.7 kmh 30.09 in1019.0 mb 0.00 in0.0 mm 0.00 in0.0 mm 0.00 in0.0 mm
09:00 PM 66.4°F19.1°C 34.8°F1.6°C 31% 4.4 mph W7.1 kmh W 5.4 mph8.7 kmh 30.09 in1019.0 mb 0.00 in0.0 mm 0.00 in0.0 mm 0.00 in0.0 mm
09:15 PM 65.1°F18.4°C 34.5°F1.4°C 32% 4.4 mph W7.1 kmh W 5.4 mph8.7 kmh 30.09 in1019.0 mb 0.00 in0.0 mm 0.00 in0.0 mm 0.00 in0.0 mm
09:30 PM 64.0°F17.8°C 34.3°F1.3°C 33% 4.4 mph W7.1 kmh W 5.4 mph8.7 kmh 30.09 in1019.0 mb 0.00 in0.0 mm 0.00 in0.0 mm 0.00 in0.0 mm
09:45 PM 63.0°F17.2°C 34.1°F1.2°C 34% 4.4 mph W7.1 kmh W 5.4 mph8.7 kmh 30.09 in1019.0 mb 0.00 in0.0 mm 0.00 in0.0 mm 0.00 in0.0 mm
10:00 PM 62.4°F16.9°C 34.4°F1.3°C 35% 4.4 mph W7.1 kmh W 5.4 mph8.7 kmh 30.09 in1019.0 mb 0.00 in0.0 mm 0.00 in0.0 mm 0.00 in0.0 mm
10:15 PM 61.9°F16.6°C 33.9°F1.1°C 35% 4.4 mph W7.1 kmh W 5.4 mph8.7 kmh 30.09 in1019.0 mb 0.00 in0.0 mm 0.00 in0.0 mm 0.00 in0.0 mm
10:30 PM 61.2°F16.2°C 34.0°F1.1°C 36% 4.4 mph W7.1 kmh W 5.4 mph8.7 kmh 30.09 in1019.0 mb 0.00 in0.0 mm 0.00 in0.0 mm 0.00 in0.0 mm
10:45 PM 60.6°F15.9°C 34.2°F1.2°C 37% 4.4 mph W7.1 kmh W 5.4 mph8.7 kmh 30.09 in1019.0 mb 0.00 in0.0 mm 0.00 in0.0 mm 0.00 in0.0 mm
11:00 PM 59.5°F15.3°C 34.5°F1.4°C 39% 4.4 mph W7.1 kmh W 5.4 mph8.7 kmh 30.09 in1019.0 mb 0.00 in0.0 mm 0.00 in0.0 mm 0.00 in0.0 mm
11:15 PM 58.8°F14.9°C 35.2°F1.8°C 41% 4.4 mph W7.1 kmh W 5.4 mph8.7 kmh 30.09 in1019.0 mb 0.00 in0.0 mm 0.00 in0.0 mm 0.00 in0.0 mm
11:30 PM 58.3°F14.6°C 35.3°F1.8°C 42% 4.4 mph W7.1 kmh W 5.4 mph8.7 kmh 30.09 in1019.0 mb 0.00 in0.0 mm 0.00 in0.0 mm 0.00 in0.0 mm
11:45 PM 57.6°F14.2°C 35.8°F2.1°C 44% 4.4 mph W7.1 kmh W 5.4 mph8.7 kmh 30.09 in1019.0 mb 0.00 in0.0 mm 0.00 in0.0 mm 0.00 in0.0 mm